x

Port Orford - 15 Nm West Of Port Orford, Or (46015) Wave Buoy

1:50am - Sun 23rd Nov 2014 All times are PST. -8 hours from GMT.

  • Sig Wave height 12.1ft
  • Swell Direction
  • Peak Period 13s
  • Average Period 8s
  • Wind
    13mph, 18mph gusts
  • Sea Temp 57°f
  • Air Temp 56°f
  • Sea Pressure 1027.4mb
  • Port Orford - 15 Nm West Of Port Orford, Or
  • Port Orford - 15 Nm West Of Port Orford, Or

More Historic Weather Station data

Upgrade to MSW Pro to gain access to the past 30 days of data for over 8000 Wavebouys and Weather Stations around the globe.

Join Pro

Comparision Forecast

View Surf forecast
   
Sun 11/23 1:50am 12ft 13s 8s 13 18 mph 1027.4mb 57f 56f
12:50am 11ft 13s 8s 9 11 mph 1026.9mb 57f 57f
Sat 11/22 11:50pm 12ft 14s 9s 7 9 mph 1026.3mb 57f 57f
10:50pm 11.5ft 14s 9s 7 9 mph 1026.2mb 57f 57f
9:50pm 12.5ft 13s 9s 9
mph
1026mb 57f 57f
8:50pm  -   -   -  4 7 mph 1025.3mb 57f 57f
7:50pm 12ft 15s 10s 7 9 mph 1024.7mb 57f 57f
6:50pm 13ft 15s 10s 7 11 mph 1024.1mb 57f 57f
5:50pm 12ft 15s 9s 11 13 mph 1023.5mb 57f 57f
4:50pm 12ft 15s 9s 11 16 mph 1022.7mb 57f 57f
3:50pm 11.5ft 16s 9s 9 13 mph 1021.7mb 57f 58f
2:50pm 13ft 15s 9s 16 18 mph 1021.2mb 57f 57f
1:50pm  -   -   -  16 20 mph 1020.2mb 57f 57f
12:50pm 12ft 15s 8s 18 22 mph 1019.5mb 57f 57f
11:50am  -   -   -  18 20 mph 1018.5mb 57f 57f
10:50am 14ft 15s 8s 22 27 mph 1017.9mb 57f 57f
9:50am 12.5ft 11s 8s 18 22 mph 1016.4mb 57f 56f
8:50am 11.5ft 9s 7s 22 27 mph 1015.5mb 57f 57f
7:50am 12ft 11s 8s 16 20 mph 1013.9mb 57f 57f
6:50am 11.5ft 10s 8s 20 27 mph 1012.9mb 57f 58f
5:50am 10ft 11s 8s 13 16 mph 1012mb 57f 57f
4:50am 12ft 11s 8s 18 25 mph 1011.2mb 57f 56f
3:50am 11ft 12s 8s 13 16 mph 1010.8mb 57f 58f
2:50am 11ft 11s 8s 9 11 mph 1010.8mb 57f 58f
1:50am 12ft 12s 8s 9 13 mph 1010.4mb 57f 58f
12:50am 12ft 8s 8s 9 13 mph 1009.7mb 57f 58f
Fri 11/21 11:50pm 13.5ft 8s 7s 11 13 mph 1009mb 57f 58f
10:50pm 12ft 8s 7s 16 18 mph 1008.1mb 57f 58f
9:50pm 12ft 9s 7s 22 27 mph 1007.1mb 57f 58f
8:50pm 14ft 8s 7s 20 25 mph 1006.4mb 57f 59f
7:50pm 13ft 9s 7s 20 25 mph 1006.2mb 57f 59f
6:50pm 13ft 8s 7s 25 27 mph 1006.3mb 57f 59f
5:50pm 15ft 8s 7s 29 36 mph 1006.2mb 57f 58f
4:50pm 13.5ft 8s 7s 36 43 mph 1006.3mb 57f 57f
3:50pm 14.5ft 11s 7s 36 47 mph 1006.4mb 57f 57f
2:50pm 13.5ft 8s 6s 34 43 mph 1006.9mb 57f 57f
1:50pm 13ft 7s 6s 38 47 mph 1006.9mb 57f 56f
12:50pm 13ft 8s 6s 38 49 mph 1007.4mb 57f 56f
11:50am 13ft 7s 6s 40 49 mph 1007.8mb 57f 56f
10:50am 12ft 13s 6s 38 47 mph 1009mb 57f 56f
9:50am 11.5ft 13s 6s 36 45 mph 1009.3mb 57f 56f
8:50am 11ft 12s 6s 34 40 mph 1010.1mb 57f 56f
7:50am 10ft 11s 6s 29 36 mph 1010.6mb 57f 56f
6:50am 9.5ft 13s 6s 27 31 mph 1011.7mb 57f 56f
5:50am 9ft 14s 6s 27 34 mph 1012mb 57f 56f
4:50am 9ft 13s 6s 25 31 mph 1012.6mb 57f 57f
3:50am 9ft 13s 6s 25 31 mph 1012.8mb 57f 56f
2:50am 9ft 14s 6s 25 29 mph 1013.5mb 57f 56f
1:50am 10ft 14s 7s 25 29 mph 1013.6mb 57f 56f
12:50am 8.5ft 9s 6s 20 27 mph 1013.6mb 57f 57f
Thu 11/20 11:50pm 8ft 9s 6s 20 25 mph 1014.3mb 57f 57f
10:50pm 8ft 10s 6s 20 25 mph 1014.3mb 57f 57f
9:50pm 8.5ft 10s 7s 18 22 mph 1014.6mb 57f 57f
8:50pm 9ft 10s 7s 18 22 mph 1014.4mb 58f 57f
7:50pm 9ft 14s 7s 18 22 mph 1014.6mb 57f 57f
6:50pm 9.5ft 14s 7s 18 20 mph 1013.6mb 57f 57f
5:50pm 9ft 15s 7s 20 22 mph 1013.7mb 57f 57f
4:50pm 9ft 10s 7s 20 25 mph 1013.4mb 57f 57f
3:50pm 10ft 15s 7s 22 29 mph 1013.8mb 57f 57f
2:50pm 10ft 15s 7s 22 29 mph 1013.5mb 57f 57f
1:50pm 10ft 10s 7s 22 29 mph 1013.4mb 57f 56f
12:50pm 11ft 10s 7s 22 27 mph 1013.5mb 57f 55f
11:50am 10.5ft 11s 6s 27 31 mph 1013.6mb 57f 55f
10:50am 10.5ft 10s 6s 22 29 mph 1014.4mb 57f 54f
9:50am 11.5ft 10s 7s 29 36 mph 1014.1mb 57f 56f
8:50am 12ft 10s 7s 25 31 mph 1014.2mb 57f 56f
7:50am 11ft 11s 7s 20 25 mph 1014.2mb 57f 55f
6:50am 11ft 10s 7s 25 31 mph 1013.5mb 57f 57f
5:50am 11.5ft 11s 7s 22 27 mph 1013.8mb 57f 57f
4:50am 11ft 11s 7s 22 27 mph 1014mb 57f 57f
3:50am 11.5ft 11s 8s 25 29 mph 1014.6mb 57f 57f
2:50am 13ft 11s 8s 18 22 mph 1015mb 57f 57f
1:50am 12.5ft 12s 8s 18 20 mph 1015.3mb 57f 58f
12:50am 12ft 12s 8s 18 22 mph 1015.8mb 57f 57f
Wed 11/19 11:50pm 12ft 12s 8s 13 18 mph 1016.1mb 57f 57f
10:50pm 10ft 12s 8s 11 13 mph 1015.4mb 57f 57f
9:50pm 10.5ft 12s 8s 13 16 mph 1015.8mb 57f 57f
8:50pm 10ft 12s 8s 11 16 mph 1015.5mb 57f 56f
7:50pm 9ft 13s 7s 18 22 mph 1015mb 57f 57f
6:50pm 9ft 11s 7s 13 16 mph 1014.1mb 57f 57f
5:50pm 9.5ft 9s 7s 18 22 mph 1013mb 57f 58f
4:50pm 9.5ft 12s 7s 11 16 mph 1011.8mb 57f 58f
3:50pm 11ft 12s 7s 16 20 mph 1010.9mb 57f 57f
2:50pm 11ft 12s 7s 31 38 mph 1009.6mb 57f 55f
1:50pm 10.5ft 11s 7s 27 34 mph 1009.4mb 57f 55f
12:50pm 11ft 12s 7s 27 31 mph 1009.7mb 57f 55f
11:50am 10.5ft 11s 8s 25 29 mph 1009.9mb 57f 56f